New Delhi Safdarjung, India

8:58 PM IST on September 16, 2014 (GMT +0530)
New Delhi - GK2 | Change Station
CLOSE
Current Station
Personal Weather Station
Location: New Delhi, Delhi
Elevation: 810 ft
Nearby Weather Stations

Elev 810 ft 28.53 °N, 77.24 °E | Updated 4 seconds ago

Haze
Haze
86.2 °F
Feels Like 99 °F
N
0.0
Wind Variable Wind from NW
Gusts 1.0 mph

Today
High -- | Low -- °F
--% Chance of Precip.
Yesterday
High -- | Low -- °F
Precip. -- in
6:06 AM 6:25 PM
Last Quarter, 45% visible
Pressure 29.65 in
Visibility 2.5 miles
Clouds Few 10000 ft
Heat Index 99 °F
Dew Point 78 °F
Humidity 78%
Rainfall 0.00 in
Snow Depth Not available.
UV 0.0 out of 12
Pollen Not available.
Air Quality Not available.
Flu Activity Not available.
METAR VIDP 161500Z 32005KT 4000 HZ FEW100 31/24 Q1004 NOSIG

More Conditions Fewer Conditions

Pressure 29.65 in
Visibility 2.5 miles
Clouds Few 10000 ft
Heat Index 99 °F
Dew Point 78 °F
Humidity 78%
Rainfall 0.00 in
Snow Depth Not available.
UV 0.0 out of 12
Pollen Not available.
Air Quality Not available.
Flu Activity Not available.
METAR VIDP 161500Z 32005KT 4000 HZ FEW100 31/24 Q1004 NOSIG

More Conditions Fewer Conditions

10-Day Weather Forecast

Almanac

Astronomy

Sep. 16, 2014 Rise Set
Actual Time 6:06 AM IST 6:25 PM IST
Civil Twilight 5:42 AM IST 6:49 PM IST
Nautical Twilight 5:15 AM IST 7:16 PM IST
Astronomical Twilight 4:47 AM IST 7:44 PM IST
Moon 12:04 AM IST (9/17) 1:05 PM IST
Length of Visible Light 13h 06m
Length of Day
12h 18m
Tomorrow will be 1m 42s shorter.
Last Quarter, 45% of the Moon is Illuminated
Today
Last Quarter
Sep 24
New
Oct 1
First Quarter
Oct 8
Full
Oct 15
Last Quarter

Today's Extremes

Country Highs Country Lows

Community

WunderPhotos

Upload Photos

1,753,807 photos uploaded!

Nearby

Snow Depth

Not available.

Earthquake Activity

City Distance Mag. Time & Date
No recent earthquake activity has been reported nearby.
Minimum magnitude displayed is 2.5.

Coastal Water Temperatures

Place Temperature
No Stations Reporting

Nearby Weather Stations